createdAt,value
2018-12-18T09:08:58.923Z,100.00
2018-12-18T09:14:00.221Z,99.13
2018-12-18T09:19:01.386Z,98.68
2018-12-18T09:24:02.468Z,98.73
2018-12-18T09:29:04.530Z,98.77
2018-12-18T09:34:05.706Z,97.97
2018-12-18T09:39:12.910Z,98.65
2018-12-18T09:44:14.874Z,99.10
2018-12-18T09:49:15.759Z,98.64
2018-12-18T09:54:16.632Z,96.68
2018-12-18T09:59:17.600Z,94.66
2018-12-18T10:04:18.421Z,94.70
2018-12-18T10:09:19.348Z,95.46
2018-12-18T10:14:20.414Z,94.19
2018-12-18T10:19:22.590Z,99.51
2018-12-18T10:24:24.001Z,100.00
2018-12-18T10:29:25.073Z,98.67
2018-12-18T10:34:27.135Z,100.00
2018-12-18T10:39:31.888Z,100.00
2018-12-18T10:44:33.168Z,100.00
2018-12-18T10:49:39.032Z,99.74
2018-12-18T10:54:40.012Z,98.42
2018-12-18T10:59:42.191Z,100.00
2018-12-18T11:04:43.395Z,99.50
2018-12-18T11:09:44.479Z,99.29
2018-12-18T11:14:49.699Z,96.04
2018-12-18T11:19:50.815Z,96.24
2018-12-18T11:24:51.992Z,96.74
2018-12-18T11:29:54.163Z,97.77
2018-12-18T11:34:55.361Z,99.31
2018-12-18T11:39:56.704Z,100.00
2018-12-18T11:44:57.905Z,100.00
2018-12-18T11:49:59.013Z,99.54
2018-12-18T11:54:59.892Z,98.11
2018-12-18T12:00:00.790Z,97.11
2018-12-18T12:05:01.805Z,96.82
2018-12-18T12:10:04.343Z,95.43
2018-12-18T12:15:05.685Z,96.39
2018-12-18T12:25:43.525Z,96.43
2018-12-18T12:30:45.516Z,96.65
2018-12-18T12:35:55.526Z,96.56
2018-12-18T12:40:56.329Z,96.34
2018-12-18T12:46:06.416Z,94.41
2018-12-18T12:51:11.534Z,95.62
2018-12-18T12:56:12.438Z,95.33
2018-12-18T13:01:13.277Z,94.79
2018-12-18T13:06:14.179Z,93.96
2018-12-18T13:11:15.218Z,95.08
2018-12-18T13:27:25.856Z,95.20
2018-12-18T13:32:26.876Z,95.67
2018-12-18T13:37:27.806Z,95.78
2018-12-18T13:42:30.817Z,95.32
2018-12-18T13:47:31.862Z,95.08
2018-12-18T13:52:32.706Z,94.86
2018-12-18T13:57:33.734Z,96.09
2018-12-18T14:02:34.671Z,98.35
2018-12-18T14:07:35.659Z,99.62
2018-12-18T14:12:36.620Z,99.94
2018-12-18T14:17:37.705Z,100.00
2018-12-18T14:22:38.851Z,100.00
2018-12-18T14:27:40.022Z,100.00
2018-12-18T14:32:41.038Z,100.00
2018-12-18T14:37:43.162Z,100.00
2018-12-18T14:42:44.335Z,100.00
2018-12-18T14:47:45.486Z,100.00
2018-12-18T14:53:01.046Z,100.00
2018-12-18T14:58:02.266Z,100.00
2018-12-18T15:03:03.476Z,100.00
2018-12-18T15:19:14.690Z,100.00
2018-12-18T15:24:15.596Z,100.00
2018-12-18T15:29:16.409Z,100.00
2018-12-18T15:34:17.347Z,100.00
2018-12-18T15:39:18.276Z,100.00
2018-12-18T15:44:19.322Z,100.00
2018-12-18T15:49:29.603Z,100.00
2018-12-18T15:54:31.762Z,100.00
2018-12-18T15:59:32.863Z,100.00
2018-12-18T16:04:33.831Z,100.00
2018-12-18T16:09:34.832Z,100.00
2018-12-18T16:14:35.992Z,100.00
2018-12-18T16:19:37.046Z,100.00
2018-12-18T16:24:38.229Z,100.00
2018-12-18T16:29:39.309Z,100.00
2018-12-18T16:34:45.258Z,100.00
2018-12-18T16:39:46.151Z,100.00
2018-12-18T16:50:26.573Z,100.00
2018-12-18T16:55:25.346Z,100.00
2018-12-18T17:00:26.191Z,100.00
2018-12-18T17:05:27.160Z,100.00
2018-12-18T17:10:27.962Z,100.00
2018-12-18T17:15:29.026Z,100.00
2018-12-18T17:20:30.025Z,100.00
2018-12-18T17:25:31.035Z,100.00
2018-12-18T17:30:31.919Z,100.00
2018-12-18T17:35:39.505Z,100.00
2018-12-18T17:40:41.783Z,100.00
2018-12-18T17:45:43.758Z,100.00
2018-12-18T17:50:44.710Z,100.00
2018-12-18T17:55:45.866Z,100.00
2018-12-18T18:00:46.731Z,100.00
2018-12-18T18:05:47.545Z,100.00
2018-12-18T18:10:48.555Z,100.00
2018-12-18T18:15:49.631Z,100.00
2018-12-18T18:20:50.670Z,100.00
2018-12-18T18:25:52.125Z,100.00
2018-12-18T18:30:53.264Z,100.00
2018-12-18T18:36:02.450Z,100.00
2018-12-18T18:41:03.612Z,100.00
2018-12-18T18:46:04.813Z,100.00
2018-12-18T18:51:05.955Z,100.00
2018-12-18T18:56:07.628Z,100.00
2018-12-18T19:01:08.804Z,100.00
2018-12-18T19:06:09.819Z,100.00
2018-12-18T19:11:10.988Z,100.00
2018-12-18T19:16:12.441Z,100.00
2018-12-18T19:21:13.670Z,100.00
2018-12-18T19:26:14.992Z,100.00
2018-12-18T19:31:16.069Z,100.00
2018-12-18T19:36:17.335Z,100.00
2018-12-18T19:41:20.492Z,100.00
2018-12-18T19:46:21.653Z,100.00
2018-12-18T19:51:22.834Z,100.00
2018-12-18T19:56:24.022Z,100.00
2018-12-18T20:01:25.166Z,100.00
2018-12-18T20:06:26.190Z,100.00
2018-12-18T20:11:27.343Z,100.00
2018-12-18T20:16:29.001Z,100.00
2018-12-18T20:21:31.163Z,100.00
2018-12-18T20:26:32.888Z,100.00
2018-12-18T20:31:34.061Z,100.00
2018-12-18T20:36:35.170Z,100.00
2018-12-18T20:41:36.401Z,100.00
2018-12-18T20:46:38.424Z,100.00
2018-12-18T20:51:54.843Z,100.00
2018-12-18T20:56:56.981Z,100.00
2018-12-18T21:01:58.097Z,100.00
2018-12-18T21:06:59.337Z,100.00
2018-12-18T21:12:00.399Z,100.00
2018-12-18T21:17:02.575Z,99.99
2018-12-18T21:22:07.587Z,99.73
2018-12-18T21:27:08.725Z,99.72
2018-12-18T21:32:09.837Z,99.30
2018-12-18T21:37:11.975Z,99.08
2018-12-18T21:42:13.140Z,100.00
2018-12-18T21:47:14.226Z,100.00
2018-12-18T21:52:15.293Z,100.00
2018-12-18T21:57:16.442Z,100.00
2018-12-18T22:02:17.623Z,100.00
2018-12-18T22:07:18.637Z,100.00
2018-12-18T22:17:54.438Z,100.00
2018-12-18T22:22:55.423Z,100.00
2018-12-18T22:27:56.380Z,100.00
2018-12-18T22:32:57.237Z,100.00
2018-12-18T22:37:58.120Z,100.00
2018-12-18T22:42:58.945Z,99.70
2018-12-18T22:47:59.889Z,99.23
2018-12-18T22:53:04.772Z,98.38
2018-12-18T22:58:07.850Z,97.60
2018-12-18T23:03:08.752Z,97.54
2018-12-18T23:08:09.898Z,98.28
2018-12-18T23:18:45.725Z,98.11
2018-12-18T23:23:46.858Z,95.61
2018-12-18T23:28:48.068Z,95.42
2018-12-18T23:33:49.332Z,95.65
2018-12-18T23:38:56.593Z,96.68
2018-12-18T23:43:53.416Z,98.10
2018-12-18T23:48:54.482Z,98.59
2018-12-18T23:53:55.638Z,98.92
2018-12-18T23:58:56.763Z,99.34
